sensor_id;sensor_type;location;lat;lon;timestamp;temperature;humidity
21676;DHT22;10999;51.332;9.458;2022-09-01T00:01:50;14.20;58.20
21676;DHT22;10999;51.332;9.458;2022-09-01T00:04:23;14.10;58.00
21676;DHT22;10999;51.332;9.458;2022-09-01T00:06:53;14.00;58.50
21676;DHT22;10999;51.332;9.458;2022-09-01T00:09:22;13.90;58.90
21676;DHT22;10999;51.332;9.458;2022-09-01T00:11:51;13.90;59.20
21676;DHT22;10999;51.332;9.458;2022-09-01T00:14:22;13.90;59.50
21676;DHT22;10999;51.332;9.458;2022-09-01T00:17:02;13.90;59.70
21676;DHT22;10999;51.332;9.458;2022-09-01T00:19:30;13.80;60.10
21676;DHT22;10999;51.332;9.458;2022-09-01T00:21:59;13.70;60.30
21676;DHT22;10999;51.332;9.458;2022-09-01T00:24:26;13.70;60.80
21676;DHT22;10999;51.332;9.458;2022-09-01T00:26:54;13.60;61.30
21676;DHT22;10999;51.332;9.458;2022-09-01T00:29:22;13.60;61.50
21676;DHT22;10999;51.332;9.458;2022-09-01T00:31:49;13.50;61.80
21676;DHT22;10999;51.332;9.458;2022-09-01T00:34:18;13.60;62.10
21676;DHT22;10999;51.332;9.458;2022-09-01T00:36:45;13.40;62.10
21676;DHT22;10999;51.332;9.458;2022-09-01T00:39:14;13.40;62.50
21676;DHT22;10999;51.332;9.458;2022-09-01T00:41:41;13.40;62.80
21676;DHT22;10999;51.332;9.458;2022-09-01T00:44:13;13.40;62.90
21676;DHT22;10999;51.332;9.458;2022-09-01T00:46:43;13.50;62.60
21676;DHT22;10999;51.332;9.458;2022-09-01T00:49:26;13.50;62.10
21676;DHT22;10999;51.332;9.458;2022-09-01T00:52:00;13.40;61.70
21676;DHT22;10999;51.332;9.458;2022-09-01T00:54:32;13.40;62.00
21676;DHT22;10999;51.332;9.458;2022-09-01T00:57:01;13.40;62.40
21676;DHT22;10999;51.332;9.458;2022-09-01T00:59:28;13.30;62.70
21676;DHT22;10999;51.332;9.458;2022-09-01T01:01:56;13.30;63.00
21676;DHT22;10999;51.332;9.458;2022-09-01T01:04:23;13.30;63.10
21676;DHT22;10999;51.332;9.458;2022-09-01T01:06:54;13.20;63.10
21676;DHT22;10999;51.332;9.458;2022-09-01T01:09:31;13.20;63.20
21676;DHT22;10999;51.332;9.458;2022-09-01T01:12:01;13.10;63.70
21676;DHT22;10999;51.332;9.458;2022-09-01T01:14:29;13.10;64.10
21676;DHT22;10999;51.332;9.458;2022-09-01T01:16:59;13.10;64.50
21676;DHT22;10999;51.332;9.458;2022-09-01T01:19:45;13.00;64.60
21676;DHT22;10999;51.332;9.458;2022-09-01T01:25:19;12.90;65.50
21676;DHT22;10999;51.332;9.458;2022-09-01T01:27:48;12.80;65.90
21676;DHT22;10999;51.332;9.458;2022-09-01T01:30:17;12.70;66.50
21676;DHT22;10999;51.332;9.458;2022-09-01T01:32:46;12.70;66.50
21676;DHT22;10999;51.332;9.458;2022-09-01T01:35:15;12.70;66.90
21676;DHT22;10999;51.332;9.458;2022-09-01T01:37:44;12.70;66.90
21676;DHT22;10999;51.332;9.458;2022-09-01T01:40:14;12.60;67.10
21676;DHT22;10999;51.332;9.458;2022-09-01T01:42:46;12.50;67.70
21676;DHT22;10999;51.332;9.458;2022-09-01T01:45:14;12.60;67.90
21676;DHT22;10999;51.332;9.458;2022-09-01T01:47:47;12.60;67.50
21676;DHT22;10999;51.332;9.458;2022-09-01T01:50:25;12.50;67.70
21676;DHT22;10999;51.332;9.458;2022-09-01T01:52:53;12.50;68.10
21676;DHT22;10999;51.332;9.458;2022-09-01T01:55:24;12.50;68.10
21676;DHT22;10999;51.332;9.458;2022-09-01T01:57:55;12.40;68.10
21676;DHT22;10999;51.332;9.458;2022-09-01T02:00:25;12.40;68.30
21676;DHT22;10999;51.332;9.458;2022-09-01T02:02:56;12.40;68.60
21676;DHT22;10999;51.332;9.458;2022-09-01T02:05:28;12.40;68.90
21676;DHT22;10999;51.332;9.458;2022-09-01T02:08:02;12.30;69.20
21676;DHT22;10999;51.332;9.458;2022-09-01T02:10:40;12.30;69.50
21676;DHT22;10999;51.332;9.458;2022-09-01T02:13:10;12.20;69.80
21676;DHT22;10999;51.332;9.458;2022-09-01T02:15:47;12.20;69.80
21676;DHT22;10999;51.332;9.458;2022-09-01T02:18:18;12.10;70.00
21676;DHT22;10999;51.332;9.458;2022-09-01T02:20:47;12.10;70.40
21676;DHT22;10999;51.332;9.458;2022-09-01T02:23:16;12.00;70.60
21676;DHT22;10999;51.332;9.458;2022-09-01T02:25:51;12.00;70.70
21676;DHT22;10999;51.332;9.458;2022-09-01T02:28:39;12.00;70.50
21676;DHT22;10999;51.332;9.458;2022-09-01T02:31:10;11.90;70.90
21676;DHT22;10999;51.332;9.458;2022-09-01T02:33:38;11.90;71.00
21676;DHT22;10999;51.332;9.458;2022-09-01T02:36:09;11.90;71.30
21676;DHT22;10999;51.332;9.458;2022-09-01T02:38:40;11.90;71.10
21676;DHT22;10999;51.332;9.458;2022-09-01T02:41:12;11.80;71.40
21676;DHT22;10999;51.332;9.458;2022-09-01T02:43:41;11.80;71.60
21676;DHT22;10999;51.332;9.458;2022-09-01T02:46:09;11.70;71.70
21676;DHT22;10999;51.332;9.458;2022-09-01T02:48:39;11.70;72.00
21676;DHT22;10999;51.332;9.458;2022-09-01T02:51:10;11.70;71.90
21676;DHT22;10999;51.332;9.458;2022-09-01T02:53:38;11.70;71.90
21676;DHT22;10999;51.332;9.458;2022-09-01T02:56:06;11.70;72.50
21676;DHT22;10999;51.332;9.458;2022-09-01T02:58:41;11.60;72.60
21676;DHT22;10999;51.332;9.458;2022-09-01T03:01:23;11.60;72.40
21676;DHT22;10999;51.332;9.458;2022-09-01T03:03:53;11.60;72.50
21676;DHT22;10999;51.332;9.458;2022-09-01T03:06:21;11.60;73.00
21676;DHT22;10999;51.332;9.458;2022-09-01T03:08:52;11.50;72.80
21676;DHT22;10999;51.332;9.458;2022-09-01T03:11:20;11.50;72.90
21676;DHT22;10999;51.332;9.458;2022-09-01T03:13:47;11.50;72.70
21676;DHT22;10999;51.332;9.458;2022-09-01T03:16:14;11.50;72.60
21676;DHT22;10999;51.332;9.458;2022-09-01T03:18:41;11.50;72.60
21676;DHT22;10999;51.332;9.458;2022-09-01T03:21:09;11.50;72.80
21676;DHT22;10999;51.332;9.458;2022-09-01T03:23:43;11.50;72.80
21676;DHT22;10999;51.332;9.458;2022-09-01T03:26:10;11.40;73.10
21676;DHT22;10999;51.332;9.458;2022-09-01T03:28:37;11.40;73.40
21676;DHT22;10999;51.332;9.458;2022-09-01T03:31:04;11.30;73.70
21676;DHT22;10999;51.332;9.458;2022-09-01T03:33:32;11.20;74.20
21676;DHT22;10999;51.332;9.458;2022-09-01T03:35:59;11.20;74.50
21676;DHT22;10999;51.332;9.458;2022-09-01T03:38:26;11.20;75.50
21676;DHT22;10999;51.332;9.458;2022-09-01T03:40:59;11.20;74.60
21676;DHT22;10999;51.332;9.458;2022-09-01T03:43:31;11.20;74.30
21676;DHT22;10999;51.332;9.458;2022-09-01T03:46:01;11.30;74.40
21676;DHT22;10999;51.332;9.458;2022-09-01T03:48:29;11.20;74.30
21676;DHT22;10999;51.332;9.458;2022-09-01T03:50:59;11.20;74.40
21676;DHT22;10999;51.332;9.458;2022-09-01T03:53:31;11.20;74.60
21676;DHT22;10999;51.332;9.458;2022-09-01T03:55:58;11.20;74.50
21676;DHT22;10999;51.332;9.458;2022-09-01T03:58:26;11.10;74.60
21676;DHT22;10999;51.332;9.458;2022-09-01T04:00:55;11.10;74.50
21676;DHT22;10999;51.332;9.458;2022-09-01T04:03:25;11.10;75.10
21676;DHT22;10999;51.332;9.458;2022-09-01T04:05:55;11.00;75.30
21676;DHT22;10999;51.332;9.458;2022-09-01T04:08:22;11.00;75.40
21676;DHT22;10999;51.332;9.458;2022-09-01T04:11:11;11.00;75.50
21676;DHT22;10999;51.332;9.458;2022-09-01T04:13:40;10.80;76.00
21676;DHT22;10999;51.332;9.458;2022-09-01T04:16:20;10.90;76.50
21676;DHT22;10999;51.332;9.458;2022-09-01T04:19:06;10.90;76.70
21676;DHT22;10999;51.332;9.458;2022-09-01T04:21:42;10.90;76.70
21676;DHT22;10999;51.332;9.458;2022-09-01T04:24:10;10.90;76.60
21676;DHT22;10999;51.332;9.458;2022-09-01T04:26:40;11.00;76.50
21676;DHT22;10999;51.332;9.458;2022-09-01T04:29:07;11.00;76.10
21676;DHT22;10999;51.332;9.458;2022-09-01T04:31:36;11.00;76.00
21676;DHT22;10999;51.332;9.458;2022-09-01T04:34:07;11.00;75.70
21676;DHT22;10999;51.332;9.458;2022-09-01T04:36:41;11.00;75.60
21676;DHT22;10999;51.332;9.458;2022-09-01T04:39:10;11.10;75.90
21676;DHT22;10999;51.332;9.458;2022-09-01T04:41:43;11.00;75.90
21676;DHT22;10999;51.332;9.458;2022-09-01T04:44:12;11.10;75.90
21676;DHT22;10999;51.332;9.458;2022-09-01T04:46:42;11.00;75.80
21676;DHT22;10999;51.332;9.458;2022-09-01T04:49:12;11.10;76.10
21676;DHT22;10999;51.332;9.458;2022-09-01T04:51:47;11.00;76.10
21676;DHT22;10999;51.332;9.458;2022-09-01T04:54:20;11.00;76.30
21676;DHT22;10999;51.332;9.458;2022-09-01T04:56:49;11.00;76.40
21676;DHT22;10999;51.332;9.458;2022-09-01T04:59:18;11.00;76.50
21676;DHT22;10999;51.332;9.458;2022-09-01T05:01:47;11.00;76.80
21676;DHT22;10999;51.332;9.458;2022-09-01T05:04:19;11.00;76.90
21676;DHT22;10999;51.332;9.458;2022-09-01T05:06:48;11.00;77.10
21676;DHT22;10999;51.332;9.458;2022-09-01T05:09:18;11.10;78.20
21676;DHT22;10999;51.332;9.458;2022-09-01T05:11:45;11.10;77.60
21676;DHT22;10999;51.332;9.458;2022-09-01T05:14:14;11.20;77.50
21676;DHT22;10999;51.332;9.458;2022-09-01T05:16:44;11.30;77.50
21676;DHT22;10999;51.332;9.458;2022-09-01T05:19:13;11.30;77.40
21676;DHT22;10999;51.332;9.458;2022-09-01T05:21:45;11.40;77.70
21676;DHT22;10999;51.332;9.458;2022-09-01T05:24:19;11.40;77.40
21676;DHT22;10999;51.332;9.458;2022-09-01T05:26:49;11.50;77.30
21676;DHT22;10999;51.332;9.458;2022-09-01T05:29:17;11.60;77.40
21676;DHT22;10999;51.332;9.458;2022-09-01T05:31:46;11.70;77.00
21676;DHT22;10999;51.332;9.458;2022-09-01T05:34:16;11.80;77.00
21676;DHT22;10999;51.332;9.458;2022-09-01T05:36:48;11.90;76.90
21676;DHT22;10999;51.332;9.458;2022-09-01T05:39:16;12.00;76.80
21676;DHT22;10999;51.332;9.458;2022-09-01T05:41:43;12.20;75.60
21676;DHT22;10999;51.332;9.458;2022-09-01T05:44:11;12.30;74.80
21676;DHT22;10999;51.332;9.458;2022-09-01T05:46:39;12.40;75.30
21676;DHT22;10999;51.332;9.458;2022-09-01T05:49:08;12.50;75.50
21676;DHT22;10999;51.332;9.458;2022-09-01T05:51:41;12.60;75.10
21676;DHT22;10999;51.332;9.458;2022-09-01T05:54:12;12.70;73.90
21676;DHT22;10999;51.332;9.458;2022-09-01T05:56:39;12.80;73.40
21676;DHT22;10999;51.332;9.458;2022-09-01T05:59:11;12.90;73.30
21676;DHT22;10999;51.332;9.458;2022-09-01T06:01:54;13.00;72.30
21676;DHT22;10999;51.332;9.458;2022-09-01T06:04:23;13.10;71.60
21676;DHT22;10999;51.332;9.458;2022-09-01T06:06:53;13.20;70.90
21676;DHT22;10999;51.332;9.458;2022-09-01T06:09:31;13.30;69.80
21676;DHT22;10999;51.332;9.458;2022-09-01T06:11:58;13.30;68.90
21676;DHT22;10999;51.332;9.458;2022-09-01T06:14:25;13.40;69.10
21676;DHT22;10999;51.332;9.458;2022-09-01T06:16:51;13.50;69.10
21676;DHT22;10999;51.332;9.458;2022-09-01T06:19:19;13.60;67.50
21676;DHT22;10999;51.332;9.458;2022-09-01T06:21:46;13.60;65.60
21676;DHT22;10999;51.332;9.458;2022-09-01T06:24:14;13.80;65.60
21676;DHT22;10999;51.332;9.458;2022-09-01T06:26:40;14.00;65.20
21676;DHT22;10999;51.332;9.458;2022-09-01T06:29:09;14.10;64.10
21676;DHT22;10999;51.332;9.458;2022-09-01T06:31:40;14.30;64.50
21676;DHT22;10999;51.332;9.458;2022-09-01T06:34:10;14.50;63.20
21676;DHT22;10999;51.332;9.458;2022-09-01T06:36:39;14.70;63.00
21676;DHT22;10999;51.332;9.458;2022-09-01T06:39:07;14.90;59.70
21676;DHT22;10999;51.332;9.458;2022-09-01T06:41:35;15.10;60.30
21676;DHT22;10999;51.332;9.458;2022-09-01T06:44:04;15.40;59.90
21676;DHT22;10999;51.332;9.458;2022-09-01T06:46:31;15.60;57.30
21676;DHT22;10999;51.332;9.458;2022-09-01T06:48:59;15.80;56.50
21676;DHT22;10999;51.332;9.458;2022-09-01T06:51:26;16.00;55.90
21676;DHT22;10999;51.332;9.458;2022-09-01T06:53:57;16.20;51.70
21676;DHT22;10999;51.332;9.458;2022-09-01T06:56:27;16.50;51.50
21676;DHT22;10999;51.332;9.458;2022-09-01T06:58:58;16.60;50.40
21676;DHT22;10999;51.332;9.458;2022-09-01T07:01:25;16.80;51.30
21676;DHT22;10999;51.332;9.458;2022-09-01T07:03:54;17.00;48.50
21676;DHT22;10999;51.332;9.458;2022-09-01T07:06:24;17.20;47.00
21676;DHT22;10999;51.332;9.458;2022-09-01T07:09:12;17.40;47.10
21676;DHT22;10999;51.332;9.458;2022-09-01T07:12:03;17.60;46.10
21676;DHT22;10999;51.332;9.458;2022-09-01T07:14:50;17.70;43.70
21676;DHT22;10999;51.332;9.458;2022-09-01T07:17:45;17.80;42.40
21676;DHT22;10999;51.332;9.458;2022-09-01T07:20:15;17.80;39.80
21676;DHT22;10999;51.332;9.458;2022-09-01T07:22:51;18.00;41.60
21676;DHT22;10999;51.332;9.458;2022-09-01T07:25:37;18.20;42.50
21676;DHT22;10999;51.332;9.458;2022-09-01T07:28:27;18.50;41.70
21676;DHT22;10999;51.332;9.458;2022-09-01T07:31:06;18.60;39.30
21676;DHT22;10999;51.332;9.458;2022-09-01T07:33:55;18.60;38.70
21676;DHT22;10999;51.332;9.458;2022-09-01T07:36:44;18.80;38.30
21676;DHT22;10999;51.332;9.458;2022-09-01T07:39:31;19.00;38.30
21676;DHT22;10999;51.332;9.458;2022-09-01T07:42:17;19.20;37.50
21676;DHT22;10999;51.332;9.458;2022-09-01T07:45:05;19.30;36.30
21676;DHT22;10999;51.332;9.458;2022-09-01T07:47:52;19.60;35.90
21676;DHT22;10999;51.332;9.458;2022-09-01T07:50:19;19.80;34.70
21676;DHT22;10999;51.332;9.458;2022-09-01T07:53:07;19.90;34.50
21676;DHT22;10999;51.332;9.458;2022-09-01T07:55:38;20.10;32.80
21676;DHT22;10999;51.332;9.458;2022-09-01T07:58:06;20.20;32.20
21676;DHT22;10999;51.332;9.458;2022-09-01T08:00:33;20.30;33.10
21676;DHT22;10999;51.332;9.458;2022-09-01T08:03:00;20.30;31.60
21676;DHT22;10999;51.332;9.458;2022-09-01T08:05:27;20.40;31.60
21676;DHT22;10999;51.332;9.458;2022-09-01T08:07:54;20.40;31.40
21676;DHT22;10999;51.332;9.458;2022-09-01T08:10:21;20.60;31.40
21676;DHT22;10999;51.332;9.458;2022-09-01T08:12:48;20.80;30.30
21676;DHT22;10999;51.332;9.458;2022-09-01T08:15:22;21.00;30.30
21676;DHT22;10999;51.332;9.458;2022-09-01T08:18:11;21.20;29.30
21676;DHT22;10999;51.332;9.458;2022-09-01T08:20:41;21.50;27.60
21676;DHT22;10999;51.332;9.458;2022-09-01T08:23:18;21.70;27.70
21676;DHT22;10999;51.332;9.458;2022-09-01T08:25:46;21.80;26.10
21676;DHT22;10999;51.332;9.458;2022-09-01T08:28:14;21.60;25.70
21676;DHT22;10999;51.332;9.458;2022-09-01T08:30:42;21.80;26.80
21676;DHT22;10999;51.332;9.458;2022-09-01T08:33:18;22.00;27.10
21676;DHT22;10999;51.332;9.458;2022-09-01T08:35:47;22.00;26.00
21676;DHT22;10999;51.332;9.458;2022-09-01T08:38:14;21.90;25.40
21676;DHT22;10999;51.332;9.458;2022-09-01T08:40:48;22.00;24.80
21676;DHT22;10999;51.332;9.458;2022-09-01T08:45:56;21.80;25.90
21676;DHT22;10999;51.332;9.458;2022-09-01T08:48:30;21.90;25.60
21676;DHT22;10999;51.332;9.458;2022-09-01T08:51:31;21.70;25.10
21676;DHT22;10999;51.332;9.458;2022-09-01T08:57:07;22.20;25.80
21676;DHT22;10999;51.332;9.458;2022-09-01T08:59:34;22.50;24.30
21676;DHT22;10999;51.332;9.458;2022-09-01T09:07:09;23.20;21.60
21676;DHT22;10999;51.332;9.458;2022-09-01T09:09:49;23.40;20.50
21676;DHT22;10999;51.332;9.458;2022-09-01T09:13:27;23.20;20.20
21676;DHT22;10999;51.332;9.458;2022-09-01T09:16:09;23.20;21.40
21676;DHT22;10999;51.332;9.458;2022-09-01T09:19:08;23.30;20.80
21676;DHT22;10999;51.332;9.458;2022-09-01T09:21:39;23.20;19.70
21676;DHT22;10999;51.332;9.458;2022-09-01T09:26:55;23.50;21.80
21676;DHT22;10999;51.332;9.458;2022-09-01T09:29:25;23.60;18.90
21676;DHT22;10999;51.332;9.458;2022-09-01T09:32:05;23.60;17.40
21676;DHT22;10999;51.332;9.458;2022-09-01T09:34:48;23.30;17.60
21676;DHT22;10999;51.332;9.458;2022-09-01T09:37:27;23.20;18.60
21676;DHT22;10999;51.332;9.458;2022-09-01T09:40:16;23.40;18.60
21676;DHT22;10999;51.332;9.458;2022-09-01T09:47:56;23.60;18.20
21676;DHT22;10999;51.332;9.458;2022-09-01T09:50:27;23.70;18.00
21676;DHT22;10999;51.332;9.458;2022-09-01T09:53:24;23.70;17.30
21676;DHT22;10999;51.332;9.458;2022-09-01T09:58:42;23.60;16.80
21676;DHT22;10999;51.332;9.458;2022-09-01T10:01:13;23.60;17.30
21676;DHT22;10999;51.332;9.458;2022-09-01T10:03:54;23.60;18.00
21676;DHT22;10999;51.332;9.458;2022-09-01T10:06:40;23.70;16.40
21676;DHT22;10999;51.332;9.458;2022-09-01T10:11:53;23.90;16.90
21676;DHT22;10999;51.332;9.458;2022-09-01T10:14:37;24.10;15.80
21676;DHT22;10999;51.332;9.458;2022-09-01T10:17:48;23.90;15.50
21676;DHT22;10999;51.332;9.458;2022-09-01T10:20:25;24.00;16.40
21676;DHT22;10999;51.332;9.458;2022-09-01T10:22:52;24.10;15.70
21676;DHT22;10999;51.332;9.458;2022-09-01T10:25:23;24.00;15.60
21676;DHT22;10999;51.332;9.458;2022-09-01T10:27:58;24.00;15.60
21676;DHT22;10999;51.332;9.458;2022-09-01T10:30:29;23.60;15.20
21676;DHT22;10999;51.332;9.458;2022-09-01T10:32:58;23.30;16.50
21676;DHT22;10999;51.332;9.458;2022-09-01T10:35:41;22.90;15.90
21676;DHT22;10999;51.332;9.458;2022-09-01T10:38:18;22.80;17.50
21676;DHT22;10999;51.332;9.458;2022-09-01T10:40:51;23.00;15.80
21676;DHT22;10999;51.332;9.458;2022-09-01T10:43:42;22.90;16.30
21676;DHT22;10999;51.332;9.458;2022-09-01T10:48:56;23.40;17.70
21676;DHT22;10999;51.332;9.458;2022-09-01T10:54:04;24.20;16.40
21676;DHT22;10999;51.332;9.458;2022-09-01T10:56:39;24.10;14.50
21676;DHT22;10999;51.332;9.458;2022-09-01T11:02:13;23.80;15.10
21676;DHT22;10999;51.332;9.458;2022-09-01T11:07:34;23.00;16.20
21676;DHT22;10999;51.332;9.458;2022-09-01T11:11:01;22.80;16.90
21676;DHT22;10999;51.332;9.458;2022-09-01T11:13:35;22.50;18.00
21676;DHT22;10999;51.332;9.458;2022-09-01T11:16:29;22.30;18.50
21676;DHT22;10999;51.332;9.458;2022-09-01T11:21:47;22.10;19.50
21676;DHT22;10999;51.332;9.458;2022-09-01T11:27:09;22.10;19.20
21676;DHT22;10999;51.332;9.458;2022-09-01T11:32:24;22.10;18.80
21676;DHT22;10999;51.332;9.458;2022-09-01T11:34:54;22.10;18.90
21676;DHT22;10999;51.332;9.458;2022-09-01T11:37:23;22.10;17.50
21676;DHT22;10999;51.332;9.458;2022-09-01T11:40:03;22.20;17.70
21676;DHT22;10999;51.332;9.458;2022-09-01T11:42:39;22.50;17.90
21676;DHT22;10999;51.332;9.458;2022-09-01T11:48:01;23.40;15.70
21676;DHT22;10999;51.332;9.458;2022-09-01T11:50:33;23.70;15.00
21676;DHT22;10999;51.332;9.458;2022-09-01T11:53:11;24.00;15.10
21676;DHT22;10999;51.332;9.458;2022-09-01T11:55:41;24.30;14.90
21676;DHT22;10999;51.332;9.458;2022-09-01T12:00:54;24.50;12.90
21676;DHT22;10999;51.332;9.458;2022-09-01T12:03:24;24.10;13.50
21676;DHT22;10999;51.332;9.458;2022-09-01T12:06:04;23.90;14.60
21676;DHT22;10999;51.332;9.458;2022-09-01T12:08:36;23.70;14.60
21676;DHT22;10999;51.332;9.458;2022-09-01T12:11:34;23.50;15.00
21676;DHT22;10999;51.332;9.458;2022-09-01T12:16:31;23.00;15.90
21676;DHT22;10999;51.332;9.458;2022-09-01T12:19:01;22.90;15.90
21676;DHT22;10999;51.332;9.458;2022-09-01T12:21:34;22.90;16.50
21676;DHT22;10999;51.332;9.458;2022-09-01T12:24:16;22.80;16.50
21676;DHT22;10999;51.332;9.458;2022-09-01T12:26:46;22.70;16.10
21676;DHT22;10999;51.332;9.458;2022-09-01T12:29:14;22.70;16.50
21676;DHT22;10999;51.332;9.458;2022-09-01T12:31:43;22.60;15.00
21676;DHT22;10999;51.332;9.458;2022-09-01T12:37:23;22.60;14.90
21676;DHT22;10999;51.332;9.458;2022-09-01T12:39:53;22.60;14.70
21676;DHT22;10999;51.332;9.458;2022-09-01T12:45:07;23.20;12.60
21676;DHT22;10999;51.332;9.458;2022-09-01T12:53:02;23.50;12.90
21676;DHT22;10999;51.332;9.458;2022-09-01T12:55:38;23.60;13.00
21676;DHT22;10999;51.332;9.458;2022-09-01T12:58:24;23.60;13.20
21676;DHT22;10999;51.332;9.458;2022-09-01T13:01:03;23.40;11.90
21676;DHT22;10999;51.332;9.458;2022-09-01T13:03:37;23.40;11.90
21676;DHT22;10999;51.332;9.458;2022-09-01T13:06:04;23.40;12.90
21676;DHT22;10999;51.332;9.458;2022-09-01T13:08:33;23.30;12.30
21676;DHT22;10999;51.332;9.458;2022-09-01T13:13:30;22.90;12.30
21676;DHT22;10999;51.332;9.458;2022-09-01T13:15:58;22.80;13.70
21676;DHT22;10999;51.332;9.458;2022-09-01T13:18:39;22.70;13.40
21676;DHT22;10999;51.332;9.458;2022-09-01T13:21:26;23.00;13.40
21676;DHT22;10999;51.332;9.458;2022-09-01T13:23:54;23.40;12.30
21676;DHT22;10999;51.332;9.458;2022-09-01T13:26:21;23.70;12.40
21676;DHT22;10999;51.332;9.458;2022-09-01T13:28:48;23.90;11.70
21676;DHT22;10999;51.332;9.458;2022-09-01T13:31:15;24.00;11.20
21676;DHT22;10999;51.332;9.458;2022-09-01T13:33:59;24.10;10.90
21676;DHT22;10999;51.332;9.458;2022-09-01T13:36:45;24.20;11.40
21676;DHT22;10999;51.332;9.458;2022-09-01T13:39:18;24.40;11.10
21676;DHT22;10999;51.332;9.458;2022-09-01T13:41:46;24.40;9.10
21676;DHT22;10999;51.332;9.458;2022-09-01T13:44:13;24.50;10.10
21676;DHT22;10999;51.332;9.458;2022-09-01T13:46:43;24.80;10.70
21676;DHT22;10999;51.332;9.458;2022-09-01T13:49:30;25.00;10.00
21676;DHT22;10999;51.332;9.458;2022-09-01T13:52:17;25.20;9.80
21676;DHT22;10999;51.332;9.458;2022-09-01T13:54:44;25.30;8.40
21676;DHT22;10999;51.332;9.458;2022-09-01T13:57:11;25.40;8.80
21676;DHT22;10999;51.332;9.458;2022-09-01T13:59:40;25.30;9.10
21676;DHT22;10999;51.332;9.458;2022-09-01T14:02:07;25.40;9.80
21676;DHT22;10999;51.332;9.458;2022-09-01T14:04:34;25.20;9.80
21676;DHT22;10999;51.332;9.458;2022-09-01T14:07:01;25.10;10.40
21676;DHT22;10999;51.332;9.458;2022-09-01T14:09:28;25.00;10.20
21676;DHT22;10999;51.332;9.458;2022-09-01T14:11:55;24.90;9.50
21676;DHT22;10999;51.332;9.458;2022-09-01T14:14:22;24.80;9.60
21676;DHT22;10999;51.332;9.458;2022-09-01T14:16:49;24.60;10.10
21676;DHT22;10999;51.332;9.458;2022-09-01T14:19:16;24.40;10.50
21676;DHT22;10999;51.332;9.458;2022-09-01T14:21:43;24.50;11.10
21676;DHT22;10999;51.332;9.458;2022-09-01T14:24:11;24.60;11.20
21676;DHT22;10999;51.332;9.458;2022-09-01T14:26:40;24.70;10.60
21676;DHT22;10999;51.332;9.458;2022-09-01T14:29:07;24.30;10.10
21676;DHT22;10999;51.332;9.458;2022-09-01T14:31:34;24.10;10.50
21676;DHT22;10999;51.332;9.458;2022-09-01T14:34:03;23.90;10.80
21676;DHT22;10999;51.332;9.458;2022-09-01T14:36:30;23.70;10.60
21676;DHT22;10999;51.332;9.458;2022-09-01T14:38:57;23.60;10.30
21676;DHT22;10999;51.332;9.458;2022-09-01T14:41:25;23.50;9.80
21676;DHT22;10999;51.332;9.458;2022-09-01T14:43:54;23.30;10.20
21676;DHT22;10999;51.332;9.458;2022-09-01T14:46:29;23.10;11.70
21676;DHT22;10999;51.332;9.458;2022-09-01T14:49:01;23.00;12.10
21676;DHT22;10999;51.332;9.458;2022-09-01T14:51:29;22.80;11.90
21676;DHT22;10999;51.332;9.458;2022-09-01T14:54:16;22.70;13.10
21676;DHT22;10999;51.332;9.458;2022-09-01T14:56:42;22.60;12.80
21676;DHT22;10999;51.332;9.458;2022-09-01T14:59:29;22.50;12.90
21676;DHT22;10999;51.332;9.458;2022-09-01T15:01:56;22.40;13.40
21676;DHT22;10999;51.332;9.458;2022-09-01T15:04:23;22.40;12.90
21676;DHT22;10999;51.332;9.458;2022-09-01T15:06:50;22.50;14.00
21676;DHT22;10999;51.332;9.458;2022-09-01T15:09:17;22.40;13.20
21676;DHT22;10999;51.332;9.458;2022-09-01T15:11:45;22.40;13.60
21676;DHT22;10999;51.332;9.458;2022-09-01T15:14:12;22.40;12.80
21676;DHT22;10999;51.332;9.458;2022-09-01T15:16:39;22.40;12.90
21676;DHT22;10999;51.332;9.458;2022-09-01T15:19:11;22.40;12.80
21676;DHT22;10999;51.332;9.458;2022-09-01T15:21:40;22.40;12.10
21676;DHT22;10999;51.332;9.458;2022-09-01T15:24:08;22.50;12.70
21676;DHT22;10999;51.332;9.458;2022-09-01T15:26:35;22.60;13.40
21676;DHT22;10999;51.332;9.458;2022-09-01T15:29:03;22.80;12.50
21676;DHT22;10999;51.332;9.458;2022-09-01T15:31:30;23.10;12.00
21676;DHT22;10999;51.332;9.458;2022-09-01T15:34:01;23.20;11.40
21676;DHT22;10999;51.332;9.458;2022-09-01T15:36:29;23.40;11.30
21676;DHT22;10999;51.332;9.458;2022-09-01T15:38:56;23.40;10.30
21676;DHT22;10999;51.332;9.458;2022-09-01T15:41:27;23.40;11.60
21676;DHT22;10999;51.332;9.458;2022-09-01T15:43:56;23.30;10.60
21676;DHT22;10999;51.332;9.458;2022-09-01T15:46:24;23.30;12.00
21676;DHT22;10999;51.332;9.458;2022-09-01T15:49:06;23.40;10.90
21676;DHT22;10999;51.332;9.458;2022-09-01T15:51:41;23.30;10.80
21676;DHT22;10999;51.332;9.458;2022-09-01T15:54:14;23.20;10.90
21676;DHT22;10999;51.332;9.458;2022-09-01T15:56:41;23.10;11.50
21676;DHT22;10999;51.332;9.458;2022-09-01T15:59:08;23.20;11.60
21676;DHT22;10999;51.332;9.458;2022-09-01T16:01:41;23.20;11.60
21676;DHT22;10999;51.332;9.458;2022-09-01T16:04:10;23.20;10.70
21676;DHT22;10999;51.332;9.458;2022-09-01T16:06:44;23.30;10.40
21676;DHT22;10999;51.332;9.458;2022-09-01T16:09:11;23.30;11.00
21676;DHT22;10999;51.332;9.458;2022-09-01T16:11:39;23.40;11.00
21676;DHT22;10999;51.332;9.458;2022-09-01T16:14:06;23.40;10.60
21676;DHT22;10999;51.332;9.458;2022-09-01T16:16:57;23.30;10.60
21676;DHT22;10999;51.332;9.458;2022-09-01T16:22:16;23.20;10.50
21676;DHT22;10999;51.332;9.458;2022-09-01T16:24:48;23.00;10.30
21676;DHT22;10999;51.332;9.458;2022-09-01T16:27:20;22.90;10.90
21676;DHT22;10999;51.332;9.458;2022-09-01T16:29:50;22.80;10.60
21676;DHT22;10999;51.332;9.458;2022-09-01T16:32:18;22.70;10.20
21676;DHT22;10999;51.332;9.458;2022-09-01T16:34:50;22.50;10.50
21676;DHT22;10999;51.332;9.458;2022-09-01T16:39:54;22.30;10.90
21676;DHT22;10999;51.332;9.458;2022-09-01T16:42:51;22.30;11.00
21676;DHT22;10999;51.332;9.458;2022-09-01T16:52:59;22.10;11.80
21676;DHT22;10999;51.332;9.458;2022-09-01T16:58:20;22.00;11.10
21676;DHT22;10999;51.332;9.458;2022-09-01T17:09:31;21.90;11.60
21676;DHT22;10999;51.332;9.458;2022-09-01T17:12:10;21.90;11.70
21676;DHT22;10999;51.332;9.458;2022-09-01T17:14:43;21.80;11.60
21676;DHT22;10999;51.332;9.458;2022-09-01T17:17:19;21.70;11.80
21676;DHT22;10999;51.332;9.458;2022-09-01T17:19:46;21.70;12.40
21676;DHT22;10999;51.332;9.458;2022-09-01T17:22:19;21.60;12.20
21676;DHT22;10999;51.332;9.458;2022-09-01T17:24:56;21.60;12.60
21676;DHT22;10999;51.332;9.458;2022-09-01T17:27:42;21.50;12.70
21676;DHT22;10999;51.332;9.458;2022-09-01T17:30:14;21.40;12.50
21676;DHT22;10999;51.332;9.458;2022-09-01T17:41:44;21.20;13.50
21676;DHT22;10999;51.332;9.458;2022-09-01T17:46:57;21.00;13.50
21676;DHT22;10999;51.332;9.458;2022-09-01T17:52:27;20.90;13.70
21676;DHT22;10999;51.332;9.458;2022-09-01T17:57:52;20.70;14.00